EDVK

Kassel-Calden Airport

Kassel, Germany
METAR EDVK 221750Z 33004KT 9999 BKN045 08/03 Q1031
Observed Flight Rules
Oct-22 @ 17:50 UTC (7 hours ago) Visual Flight Rules
Wind Visibility Clouds
330° at 4 knots 10,000+ meters
  • Broken at 4,500' AGL
Temperatures Readings
Current 8°C / 46°F
Dewpoint 3°C / 37°F
Humidity 71%
Altimeter 30.44" Hg
Pressure 1031 hPa
Elevation 285
METAR EDVK 221750Z 33004KT 9999 BKN045 08/03 Q1031
Observed Flight Rules
Oct-22 @ 17:50 UTC
(7 hours ago)
VFR
Wind Visibility
330° at 4 knots 10,000+ meters
Clouds
  • Broken at 4,500' AGL
Temperature Dewpoint
8°C / 46°F 3°C / 37°F
Humidity Altimeter Pressure
71% 30.44" Hg 1031 hPa